Time;durP1;ratioP1;P1;durP2;ratioP2;P2;SDS_P1;SDS_P2;PMS_P1;PMS_P2;Temp;Humidity;BMP_temperature;BMP_pressure;BME280_temperature;BME280_humidity;BME280_pressure;Samples;Min_cycle;Max_cycle;Signal;HPM_P1;HPM_P2
2022/06/08 00:01:07;;;;;;;;;;;;;;;15.09;90.88;100359.69;1732130;80;99784;-71
2022/06/08 00:03:38;;;;;;;43.95;28.80;;;;;;;15.09;91.03;100352.94;1732435;80;25767;-70
2022/06/08 00:06:06;;;;;;;47.20;28.80;;;;;;;15.07;91.06;100356.23;1718352;81;99791;-70
2022/06/08 00:08:33;;;;;;;44.27;27.62;;;;;;;15.06;91.13;100359.41;1725287;81;27453;-70
2022/06/08 00:11:01;;;;;;;41.23;28.07;;;;;;;15.07;91.17;100359.80;1730745;81;26321;-70
2022/06/08 00:13:27;;;;;;;58.85;31.90;;;;;;;15.07;91.18;100365.19;1725238;81;98974;-70
2022/06/08 00:15:54;;;;;;;55.17;33.20;;;;;;;15.06;91.27;100367.51;1780147;78;26646;-70
2022/06/08 00:18:19;;;;;;;57.75;32.23;;;;;;;15.03;91.21;100373.59;1774091;79;99272;-70
2022/06/08 00:20:47;;;;;;;70.15;32.75;;;;;;;15.00;91.44;100365.70;1778449;79;27475;-70
2022/06/08 00:23:14;;;;;;;66.60;32.10;;;;;;;14.99;91.42;100357.22;1779595;78;27137;-70
2022/06/08 00:25:40;;;;;;;88.58;34.08;;;;;;;14.97;91.49;100360.50;1714766;81;99077;-70
2022/06/08 00:28:08;;;;;;;89.05;33.90;;;;;;;14.97;91.59;100364.06;1713454;81;27916;-72
2022/06/08 00:30:34;;;;;;;70.50;33.65;;;;;;;14.94;91.59;100355.69;1746213;80;99433;-70
2022/06/08 00:33:00;;;;;;;77.87;35.45;;;;;;;14.94;91.65;100352.13;1738192;80;27380;-70
2022/06/08 00:35:26;;;;;;;95.25;35.65;;;;;;;14.92;91.80;100350.02;1726195;80;26368;-70
2022/06/08 00:37:52;;;;;;;87.80;37.88;;;;;;;14.96;91.96;100352.89;1727612;82;99503;-69
2022/06/08 00:40:22;;;;;;;70.22;35.60;;;;;;;14.95;91.94;100345.77;1766160;79;26726;-70
2022/06/08 00:42:50;;;;;;;94.42;36.60;;;;;;;14.94;91.89;100354.34;1771053;79;99460;-70
2022/06/08 00:45:21;;;;;;;70.72;33.33;;;;;;;14.94;91.95;100352.13;1772175;78;27548;-70
2022/06/08 00:47:53;;;;;;;99.15;35.65;;;;;;;14.88;91.92;100349.34;1764398;79;99238;-70
2022/06/08 00:50:33;;;;;;;79.92;35.68;;;;;;;14.86;92.01;100343.67;1767680;78;26457;-69
2022/06/08 00:53:00;;;;;;;93.15;37.63;;;;;;;14.82;92.16;100345.70;1764132;79;25821;-69
2022/06/08 00:55:30;;;;;;;76.25;36.20;;;;;;;14.80;92.12;100342.72;1777131;78;99026;-69
2022/06/08 00:58:01;;;;;;;76.45;35.73;;;;;;;14.78;92.25;100348.22;1774704;79;28344;-69
2022/06/08 01:00:33;;;;;;;67.10;32.75;;;;;;;14.74;92.38;100336.38;1765752;78;99075;-69
2022/06/08 01:03:01;;;;;;;70.67;32.83;;;;;;;14.75;92.38;100335.41;1776845;78;25695;-69
2022/06/08 01:05:46;;;;;;;66.60;32.78;;;;;;;14.77;92.58;100336.18;1768333;78;27765;-69
2022/06/08 01:08:40;;;;;;;69.97;32.30;;;;;;;14.77;92.54;100334.83;1750067;80;98928;-69
2022/06/08 01:11:14;;;;;;;73.45;33.42;;;;;;;14.76;92.58;100338.01;1740991;80;28226;-69
2022/06/08 01:13:42;;;;;;;75.37;34.95;;;;;;;14.79;92.68;100331.55;1747844;80;99120;-69
2022/06/08 01:16:11;;;;;;;68.33;33.80;;;;;;;14.75;92.64;100334.06;1736063;80;25797;-69
2022/06/08 01:18:41;;;;;;;74.05;34.30;;;;;;;14.74;92.74;100329.16;1727898;81;99102;-69
2022/06/08 01:21:27;;;;;;;71.12;32.93;;;;;;;14.76;92.77;100331.27;1731474;80;26487;-69
2022/06/08 01:24:04;;;;;;;75.37;35.35;;;;;;;14.79;92.83;100334.25;1778916;78;99149;-69
2022/06/08 01:26:53;;;;;;;66.20;34.23;;;;;;;14.79;92.82;100322.97;1776635;78;25696;-69
2022/06/08 01:29:41;;;;;;;70.25;32.83;;;;;;;14.79;92.82;100323.45;1775734;78;25896;-70
2022/06/08 01:32:37;;;;;;;70.32;33.05;;;;;;;14.79;92.83;100326.16;1756092;79;98902;-69
2022/06/08 01:35:24;;;;;;;69.87;34.20;;;;;;;14.79;92.88;100325.67;1774785;78;25891;-69
2022/06/08 01:38:30;;;;;;;69.87;33.00;;;;;;;14.82;93.11;100321.42;1773939;78;99160;-69
2022/06/08 01:41:04;;;;;;;93.62;31.42;;;;;;;14.81;92.98;100315.64;1775788;78;25762;-69
2022/06/08 01:44:12;;;;;;;84.58;33.00;;;;;;;14.83;93.06;100304.74;1774813;78;100504;-71
2022/06/08 01:46:58;;;;;;;83.35;33.18;;;;;;;14.84;93.09;100313.22;1717776;81;26207;-70
2022/06/08 01:49:42;;;;;;;79.07;33.92;;;;;;;14.82;93.15;100302.53;1729677;81;99144;-70
2022/06/08 01:52:20;;;;;;;79.07;31.33;;;;;;;14.82;93.14;100307.92;1723569;81;29383;-69
2022/06/08 01:55:03;;;;;;;92.15;32.23;;;;;;;14.82;93.14;100305.71;1724447;81;99116;-69
2022/06/08 01:57:58;;;;;;;58.13;31.45;;;;;;;14.79;93.11;100314.01;1712742;81;25779;-69
2022/06/08 02:00:32;;;;;;;94.65;31.45;;;;;;;14.76;93.26;100304.28;1736599;80;99317;-69
2022/06/08 02:03:12;;;;;;;67.30;29.63;;;;;;;14.78;93.39;100301.48;1725497;81;25981;-69
2022/06/08 02:06:06;;;;;;;68.05;30.68;;;;;;;14.79;93.37;100300.52;1721614;81;29558;-70
2022/06/08 02:08:52;;;;;;;78.75;30.62;;;;;;;14.79;93.48;100298.69;1741141;79;99268;-69
2022/06/08 02:11:23;;;;;;;64.30;30.62;;;;;;;14.78;93.48;100288.86;1740339;80;25766;-69
2022/06/08 02:13:58;;;;;;;63.90;30.85;;;;;;;14.79;93.51;100290.59;1716404;81;99188;-70
2022/06/08 02:16:53;;;;;;;61.08;29.15;;;;;;;14.79;93.46;100280.28;1712074;81;25714;-69
2022/06/08 02:19:36;;;;;;;64.05;28.57;;;;;;;14.77;93.46;100283.56;1722221;81;99030;-70
2022/06/08 02:22:16;;;;;;;51.37;28.17;;;;;;;14.69;93.45;100269.72;1702739;81;26322;-69
2022/06/08 02:24:47;;;;;;;57.15;28.77;;;;;;;14.72;93.60;100282.52;1720312;81;99265;-69
2022/06/08 02:27:46;;;;;;;63.35;29.67;;;;;;;14.72;93.69;100273.08;1723220;81;26701;-69
2022/06/08 02:30:17;;;;;;;58.95;29.02;;;;;;;14.74;93.77;100277.89;1709656;81;99264;-69
2022/06/08 02:35:36;;;;;;;63.28;31.52;;;;;;;14.76;93.86;100284.05;1743281;80;26498;-70
2022/06/08 02:38:07;;;;;;;53.68;28.50;;;;;;;14.72;93.83;100283.88;1741531;80;99009;-69
2022/06/08 02:40:40;;;;;;;42.53;26.70;;;;;;;14.71;93.78;100280.80;1718233;81;44773;-69
2022/06/08 02:43:12;;;;;;;47.70;27.07;;;;;;;14.70;93.85;100280.41;1721055;81;99072;-69
2022/06/08 02:45:44;;;;;;;45.45;28.30;;;;;;;14.70;93.80;100283.59;1729735;81;27504;-69
2022/06/08 02:48:14;;;;;;;48.08;28.32;;;;;;;14.70;93.87;100290.34;1742202;80;99330;-69
2022/06/08 02:50:55;;;;;;;51.28;29.55;;;;;;;14.67;93.88;100280.61;1727394;80;25746;-69
2022/06/08 02:53:29;;;;;;;55.10;29.05;;;;;;;14.66;93.98;100288.33;1720757;81;25751;-69
2022/06/08 02:56:17;;;;;;;50.75;29.82;;;;;;;14.68;93.96;100286.39;1726525;80;99056;-70
2022/06/08 02:58:55;;;;;;;45.60;27.37;;;;;;;14.67;94.00;100283.31;1722977;80;27439;-69
2022/06/08 03:01:35;;;;;;;49.23;28.00;;;;;;;14.68;94.13;100287.73;1725012;80;99162;-69
2022/06/08 03:04:08;;;;;;;46.63;26.93;;;;;;;14.73;94.18;100290.13;1721080;81;25800;-69
2022/06/08 03:06:39;;;;;;;46.15;27.35;;;;;;;14.74;94.09;100286.47;1727923;81;99220;-68
2022/06/08 03:09:10;;;;;;;43.63;27.32;;;;;;;14.69;93.99;100289.95;1721376;80;25769;-70
2022/06/08 03:11:41;;;;;;;43.28;26.42;;;;;;;14.69;94.13;100283.20;1727549;81;27449;-71
2022/06/08 03:14:13;;;;;;;45.25;27.58;;;;;;;14.70;94.20;100291.20;1707437;81;99050;-69
2022/06/08 03:16:56;;;;;;;41.60;24.63;;;;;;;14.71;94.26;100286.19;1714209;81;25947;-70
2022/06/08 03:19:27;;;;;;;46.25;26.52;;;;;;;14.73;94.23;100294.17;1709560;81;99076;-69
2022/06/08 03:21:54;;;;;;;53.87;28.80;;;;;;;14.72;94.19;100297.84;1719508;81;25744;-70
2022/06/08 03:24:22;;;;;;;47.30;27.00;;;;;;;14.74;94.34;100299.95;1754420;79;99488;-69
2022/06/08 03:27:00;;;;;;;50.15;28.38;;;;;;;14.73;94.24;100301.79;1764037;79;26548;-70
2022/06/08 03:29:28;;;;;;;57.13;30.08;;;;;;;14.75;94.36;100303.04;1756857;79;25802;-70
2022/06/08 03:31:56;;;;;;;48.48;29.15;;;;;;;14.78;94.41;100304.19;1761112;80;98946;-70
2022/06/08 03:34:22;;;;;;;53.02;29.60;;;;;;;14.79;94.52;100312.18;1758026;79;26511;-71
2022/06/08 03:36:49;;;;;;;46.60;28.30;;;;;;;14.85;94.62;100304.16;1761858;80;99204;-70
2022/06/08 03:39:18;;;;;;;47.40;25.57;;;;;;;14.88;94.54;100308.87;1764796;79;26014;-71
2022/06/08 03:41:46;;;;;;;46.58;28.07;;;;;;;14.90;94.57;100306.07;1753959;79;26270;-71
2022/06/08 03:44:15;;;;;;;52.35;28.60;;;;;;;14.91;94.61;100305.97;1753808;79;99001;-70
2022/06/08 03:46:46;;;;;;;54.40;28.47;;;;;;;14.94;94.58;100308.95;1761280;79;26501;-70
2022/06/08 03:49:13;;;;;;;49.73;27.90;;;;;;;14.93;94.56;100305.86;1720936;81;98979;-70
2022/06/08 03:51:42;;;;;;;44.20;26.20;;;;;;;14.94;94.61;100312.99;1757801;79;27185;-70
2022/06/08 03:54:27;;;;;;;46.73;27.77;;;;;;;14.97;94.69;100315.97;1749898;79;25749;-70
2022/06/08 03:56:57;;;;;;;44.85;26.97;;;;;;;14.99;94.76;100312.20;1752188;79;26314;-70
2022/06/08 03:59:26;;;;;;;46.85;28.30;;;;;;;15.01;94.77;100307.56;1768568;79;27901;-69
2022/06/08 04:01:52;;;;;;;44.88;27.52;;;;;;;15.03;94.83;100312.86;1750494;79;99140;-69
2022/06/08 04:04:18;;;;;;;54.83;24.95;;;;;;;15.04;94.75;100315.46;1750722;79;26010;-69
2022/06/08 04:06:49;;;;;;;39.50;25.43;;;;;;;15.06;94.84;100309.47;1753738;79;108867;-69
2022/06/08 04:09:17;;;;;;;40.03;25.08;;;;;;;15.06;94.82;100305.42;1761392;79;25782;-72
2022/06/08 04:11:43;;;;;;;37.95;25.30;;;;;;;15.08;94.79;100310.23;1764198;79;25852;-69
2022/06/08 04:14:10;;;;;;;37.20;23.32;;;;;;;15.07;94.85;100309.86;1778019;78;99004;-71
2022/06/08 04:16:35;;;;;;;38.67;23.55;;;;;;;15.07;94.80;100311.20;1768085;78;25748;-69
2022/06/08 04:19:01;;;;;;;31.62;22.58;;;;;;;15.07;94.86;100304.94;1771454;78;99191;-69
2022/06/08 04:21:28;;;;;;;32.20;22.93;;;;;;;15.04;94.70;100307.36;1781260;78;28033;-69
2022/06/08 04:23:56;;;;;;;36.50;21.87;;;;;;;15.00;94.77;100313.94;1768878;78;25383;-69
2022/06/08 04:26:23;;;;;;;31.52;22.40;;;;;;;15.04;94.94;100319.51;1778577;78;99119;-70
2022/06/08 04:28:49;;;;;;;30.95;19.82;;;;;;;15.07;95.04;100312.55;1780551;78;25702;-69
2022/06/08 04:31:16;;;;;;;30.40;19.42;;;;;;;15.11;95.02;100309.16;1774753;78;99185;-69
2022/06/08 04:33:43;;;;;;;24.87;19.02;;;;;;;15.12;94.89;100314.46;1779576;78;26213;-70
2022/06/08 04:36:10;;;;;;;31.15;19.95;;;;;;;15.09;94.84;100309.75;1780585;78;25254;-70
2022/06/08 04:38:37;;;;;;;27.02;18.77;;;;;;;15.12;94.95;100314.46;1775690;78;98997;-70
2022/06/08 04:41:05;;;;;;;21.87;17.73;;;;;;;15.15;95.00;100311.55;1782656;78;28593;-69
2022/06/08 04:43:33;;;;;;;21.73;16.90;;;;;;;15.17;94.99;100309.62;1790087;78;99176;-69
2022/06/08 04:46:00;;;;;;;26.95;18.35;;;;;;;15.20;94.95;100305.36;1781802;78;25893;-69
2022/06/08 04:48:26;;;;;;;26.05;16.73;;;;;;;15.27;95.01;100319.31;1778462;78;25977;-69
2022/06/08 04:50:54;;;;;;;21.12;16.20;;;;;;;15.30;94.94;100310.13;1773890;78;98870;-70
2022/06/08 04:53:23;;;;;;;23.50;17.23;;;;;;;15.30;94.87;100310.13;1772007;78;25726;-70
2022/06/08 04:55:48;;;;;;;19.90;15.78;;;;;;;15.30;94.92;100306.08;1776870;78;99422;-70
2022/06/08 04:58:17;;;;;;;23.22;15.90;;;;;;;15.29;94.80;100312.45;1787212;78;25765;-71
2022/06/08 05:00:44;;;;;;;34.63;14.75;;;;;;;15.18;94.56;100310.48;1778115;78;99591;-70
2022/06/08 05:03:11;;;;;;;16.77;14.90;;;;;;;15.11;94.59;100307.81;1784269;78;27507;-71
2022/06/08 05:05:40;;;;;;;24.92;17.35;;;;;;;15.09;94.76;100317.85;1779243;78;25536;-71
2022/06/08 05:08:08;;;;;;;23.02;16.75;;;;;;;15.12;95.00;100320.34;1767214;78;98950;-71
2022/06/08 05:10:35;;;;;;;24.60;16.77;;;;;;;15.13;94.93;100316.19;1774646;78;25830;-71
2022/06/08 05:13:03;;;;;;;22.85;16.27;;;;;;;15.17;94.96;100313.66;1773431;78;99261;-71
2022/06/08 05:15:33;;;;;;;18.65;15.95;;;;;;;15.28;95.26;100308.02;1777503;78;27580;-71
2022/06/08 05:18:00;;;;;;;23.12;16.67;;;;;;;15.38;95.12;100304.59;1781836;78;25847;-71
2022/06/08 05:20:28;;;;;;;20.48;15.78;;;;;;;15.47;95.14;100304.44;1778035;78;99155;-71
2022/06/08 05:22:55;;;;;;;24.82;17.50;;;;;;;15.55;95.19;100308.34;1743513;80;26287;-71
2022/06/08 05:25:29;;;;;;;21.37;17.32;;;;;;;15.67;95.37;100305.28;1729708;81;99141;-70
2022/06/08 05:27:55;;;;;;;21.25;16.93;;;;;;;15.79;95.38;100294.96;1772414;78;27385;-70
2022/06/08 05:30:21;;;;;;;22.62;16.97;;;;;;;15.87;95.30;100296.63;1774363;78;25753;-70
2022/06/08 05:32:48;;;;;;;25.25;18.55;;;;;;;15.96;95.27;100299.66;1788768;78;99105;-70
2022/06/08 05:35:16;;;;;;;23.15;18.05;;;;;;;15.99;95.13;100296.73;1737473;80;26062;-70
2022/06/08 05:37:43;;;;;;;19.20;16.05;;;;;;;15.97;94.91;100299.55;1739128;80;99527;-70
2022/06/08 05:40:11;;;;;;;23.10;16.97;;;;;;;15.94;94.83;100297.06;1740770;80;29507;-70
2022/06/08 05:42:38;;;;;;;19.75;15.43;;;;;;;15.93;94.91;100298.52;1722234;81;99310;-69
2022/06/08 05:45:14;;;;;;;20.77;16.82;;;;;;;15.99;95.09;100298.09;1727295;81;25710;-69
2022/06/08 05:47:40;;;;;;;24.50;16.70;;;;;;;16.05;95.02;100297.16;1719488;81;26401;-70
2022/06/08 05:50:09;;;;;;;22.35;16.82;;;;;;;16.09;94.95;100297.81;1720083;81;99167;-70
2022/06/08 05:52:36;;;;;;;19.85;16.32;;;;;;;16.07;94.78;100297.92;1717525;81;27394;-71
2022/06/08 05:55:06;;;;;;;19.73;17.00;;;;;;;16.04;94.64;100301.33;1718648;81;99346;-70
2022/06/08 05:57:33;;;;;;;21.45;17.27;;;;;;;15.98;94.54;100306.69;1719545;81;25777;-70
2022/06/08 06:00:02;;;;;;;20.95;17.23;;;;;;;15.96;94.59;100299.66;1745558;80;26686;-70
2022/06/08 06:02:33;;;;;;;26.20;18.75;;;;;;;16.02;94.79;100300.57;1719111;81;99112;-70
2022/06/08 06:05:00;;;;;;;25.62;18.10;;;;;;;16.16;95.03;100297.75;1728274;81;28362;-70
2022/06/08 06:07:26;;;;;;;22.40;17.75;;;;;;;16.26;94.83;100290.70;1725694;81;98981;-71
2022/06/08 06:09:53;;;;;;;28.45;19.92;;;;;;;16.39;94.89;100294.73;1747724;80;26001;-70
2022/06/08 06:12:19;;;;;;;25.23;18.05;;;;;;;16.52;94.84;100299.13;1749231;80;26588;-70
2022/06/08 06:14:46;;;;;;;24.35;19.37;;;;;;;16.54;94.52;100295.82;1736419;80;99064;-71
2022/06/08 06:17:14;;;;;;;26.68;19.10;;;;;;;16.62;94.59;100297.10;1707726;81;28196;-71
2022/06/08 06:19:43;;;;;;;21.57;17.45;;;;;;;16.64;94.56;100292.44;1703386;81;99089;-69
2022/06/08 06:22:09;;;;;;;26.07;19.12;;;;;;;16.74;94.52;100292.16;1695940;82;25857;-70
2022/06/08 06:24:35;;;;;;;25.00;17.85;;;;;;;16.83;94.57;100290.12;1691447;82;25859;-70
2022/06/08 06:27:02;;;;;;;22.17;18.23;;;;;;;16.90;94.47;100296.80;1694555;82;98895;-70
2022/06/08 06:29:29;;;;;;;22.20;17.87;;;;;;;16.94;94.34;100296.09;1693869;82;27466;-70
2022/06/08 06:32:02;;;;;;;23.22;17.98;;;;;;;16.94;94.11;100300.15;1691983;82;99039;-71
2022/06/08 06:34:29;;;;;;;21.95;17.70;;;;;;;16.92;94.06;100299.40;1693425;82;26598;-70
2022/06/08 06:36:59;;;;;;;18.67;16.75;;;;;;;17.00;94.29;100299.20;1690316;82;99276;-70
2022/06/08 06:39:26;;;;;;;21.73;17.65;;;;;;;17.04;93.99;100298.48;1689675;82;25822;-69
2022/06/08 06:41:55;;;;;;;24.25;18.55;;;;;;;17.07;93.99;100300.45;1700096;82;28092;-69
2022/06/08 06:44:21;;;;;;;21.33;17.98;;;;;;;17.11;93.96;100301.95;1694907;82;99071;-69
2022/06/08 06:46:47;;;;;;;19.65;17.55;;;;;;;17.14;93.84;100300.86;1694385;82;25800;-69
2022/06/08 06:49:15;;;;;;;21.68;18.20;;;;;;;17.18;93.82;100303.22;1703540;81;99307;-69
2022/06/08 06:51:41;;;;;;;23.62;18.85;;;;;;;17.20;93.71;100296.33;1696092;82;25825;-69
2022/06/08 06:54:11;;;;;;;22.40;17.62;;;;;;;17.28;93.84;100302.02;1700348;82;27537;-70
2022/06/08 06:56:39;;;;;;;21.17;18.13;;;;;;;17.38;93.78;100296.77;1692440;82;99201;-70
2022/06/08 06:59:05;;;;;;;24.57;17.73;;;;;;;17.42;93.58;100284.70;1691830;82;25819;-70
2022/06/08 07:01:34;;;;;;;24.63;18.67;;;;;;;17.40;93.47;100297.52;1694651;82;99077;-70
2022/06/08 07:03:59;;;;;;;27.07;17.87;;;;;;;17.43;93.48;100289.14;1696037;82;25858;-70
2022/06/08 07:06:25;;;;;;;21.25;17.82;;;;;;;17.42;93.23;100294.19;1700003;82;27935;-69
2022/06/08 07:08:54;;;;;;;22.00;18.20;;;;;;;17.42;93.18;100292.34;1697333;82;98955;-69
2022/06/08 07:11:35;;;;;;;22.70;17.55;;;;;;;17.41;93.16;100287.91;1688210;82;26452;-69
2022/06/08 07:14:04;;;;;;;23.65;18.65;;;;;;;17.40;93.05;100287.54;1692500;81;99180;-69
2022/06/08 07:16:35;;;;;;;22.60;18.00;;;;;;;17.42;93.03;100281.51;1725993;80;25791;-68
2022/06/08 07:19:05;;;;;;;21.73;18.25;;;;;;;17.44;92.97;100276.83;1720311;80;99189;-68
2022/06/08 07:21:32;;;;;;;23.22;19.87;;;;;;;17.48;92.89;100283.73;1731938;80;25815;-69
2022/06/08 07:24:00;;;;;;;26.50;18.77;;;;;;;17.53;92.88;100278.83;1747176;80;25900;-69
2022/06/08 07:26:28;;;;;;;27.62;19.30;;;;;;;17.58;92.81;100273.05;1719472;81;99111;-70
2022/06/08 07:28:56;;;;;;;26.75;19.27;;;;;;;17.65;92.82;100275.65;1732482;80;25763;-69
2022/06/08 07:31:24;;;;;;;24.43;18.35;;;;;;;17.75;92.68;100287.53;1740151;80;99433;-70
2022/06/08 07:33:52;;;;;;;23.32;18.65;;;;;;;17.80;92.60;100292.59;1720425;81;25664;-70
2022/06/08 07:36:19;;;;;;;26.48;19.42;;;;;;;17.83;92.54;100283.72;1782115;78;25900;-71
2022/06/08 07:38:47;;;;;;;25.55;17.98;;;;;;;17.88;92.38;100286.56;1745345;80;99056;-71
2022/06/08 07:41:16;;;;;;;23.55;18.40;;;;;;;17.87;92.26;100280.77;1727801;80;25269;-71
2022/06/08 07:43:42;;;;;;;25.95;18.45;;;;;;;17.89;92.20;100280.16;1729113;80;98978;-66
2022/06/08 07:46:09;;;;;;;24.63;18.27;;;;;;;17.97;92.28;100270.42;1721742;80;26283;-70
2022/06/08 07:51:20;;;;;;;21.70;17.90;;;;;;;18.26;92.35;100269.39;1726822;80;99232;-69
2022/06/08 07:53:45;;;;;;;22.05;17.60;;;;;;;18.42;92.25;100267.66;1724809;80;25860;-68
2022/06/08 07:56:11;;;;;;;24.92;20.02;;;;;;;18.56;92.10;100276.02;1725100;80;99023;-68
2022/06/08 07:58:37;;;;;;;32.42;20.25;;;;;;;18.70;92.02;100272.56;1779130;78;25731;-68
2022/06/08 08:01:07;;;;;;;35.88;20.75;;;;;;;18.85;91.96;100268.20;1770596;78;99260;-68
2022/06/08 08:03:35;;;;;;;22.65;18.65;;;;;;;19.00;91.97;100270.50;1779367;78;26485;-68
2022/06/08 08:06:03;;;;;;;26.45;19.23;;;;;;;19.16;91.90;100272.78;1778636;78;26452;-68
2022/06/08 08:08:30;;;;;;;22.55;16.40;;;;;;;19.30;91.85;100271.11;1771820;79;99442;-68
2022/06/08 08:10:55;;;;;;;18.90;16.15;;;;;;;19.44;91.72;100269.42;1724529;81;25884;-68
2022/06/08 08:13:22;;;;;;;26.12;16.42;;;;;;;19.58;91.44;100273.70;1720644;81;99237;-67
2022/06/08 08:15:51;;;;;;;19.02;14.13;;;;;;;19.78;91.41;100270.11;1720650;80;25723;-67
2022/06/08 08:18:18;;;;;;;16.97;14.60;;;;;;;19.98;91.37;100275.66;1730915;80;25828;-67
2022/06/08 08:20:47;;;;;;;16.32;12.85;;;;;;;20.13;90.98;100280.23;1729434;81;99214;-66
2022/06/08 08:23:15;;;;;;;14.70;11.12;;;;;;;20.17;90.37;100283.05;1729754;80;25761;-66
2022/06/08 08:25:42;;;;;;;14.95;11.22;;;;;;;20.19;89.92;100276.47;1725548;80;99184;-65
2022/06/08 08:28:11;;;;;;;22.35;13.98;;;;;;;20.28;89.64;100279.73;1723853;80;25774;-68
2022/06/08 08:30:37;;;;;;;12.68;11.38;;;;;;;20.43;89.42;100280.24;1725930;81;25888;-66
2022/06/08 08:33:06;;;;;;;17.98;12.13;;;;;;;20.52;88.75;100281.27;1726080;80;98947;-65
2022/06/08 08:35:31;;;;;;;18.42;11.97;;;;;;;20.61;88.42;100280.44;1733145;80;27183;-66
2022/06/08 08:37:59;;;;;;;13.32;11.70;;;;;;;20.75;88.33;100281.41;1775644;78;98997;-65
2022/06/08 08:40:57;;;;;;;13.35;11.95;;;;;;;20.88;88.03;100281.11;1776257;78;25825;-66
2022/06/08 08:43:27;;;;;;;14.55;11.25;;;;;;;20.95;87.63;100274.09;1768087;78;99145;-66
2022/06/08 08:46:13;;;;;;;11.90;10.63;;;;;;;20.97;87.08;100272.94;1781456;78;27239;-66
2022/06/08 08:49:09;;;;;;;16.37;10.48;;;;;;;21.02;86.59;100276.61;1782987;78;26328;-66
2022/06/08 08:51:43;;;;;;;11.20;9.40;;;;;;;21.16;86.39;100269.88;1774820;78;99041;-65
2022/06/08 08:54:35;;;;;;;11.28;9.60;;;;;;;21.20;85.23;100271.30;1774562;78;25798;-66
2022/06/08 08:57:18;;;;;;;18.65;9.50;;;;;;;21.32;85.15;100267.46;1774810;78;98951;-65
2022/06/08 08:59:50;;;;;;;12.15;9.45;;;;;;;21.55;85.03;100268.02;1775413;78;29512;-65
2022/06/08 09:05:15;;;;;;;12.23;8.80;;;;;;;21.87;84.12;100264.93;1780419;78;25713;-70
2022/06/08 09:07:45;;;;;;;15.80;9.53;;;;;;;22.03;83.75;100257.01;1784631;77;98995;-67
2022/06/08 09:10:18;;;;;;;17.67;7.92;;;;;;;22.10;83.28;100255.91;1778077;78;25793;-67
2022/06/08 09:12:46;;;;;;;12.73;7.72;;;;;;;22.24;82.95;100255.41;1775114;78;29479;-68
2022/06/08 09:15:16;;;;;;;15.18;8.90;;;;;;;22.41;82.57;100251.02;1776522;79;98912;-68
2022/06/08 09:17:57;;;;;;;36.10;26.13;;;;;;;22.60;82.26;100252.28;1770874;78;25713;-65
2022/06/08 09:20:31;;;;;;;13.85;7.87;;;;;;;22.64;81.21;100246.86;1775764;78;99127;-68
2022/06/08 09:23:03;;;;;;;8.78;7.20;;;;;;;22.71;80.86;100237.55;1780728;78;25873;-67
2022/06/08 09:25:34;;;;;;;17.42;5.00;;;;;;;23.00;80.87;100240.95;1773927;78;98884;-68
2022/06/08 09:28:06;;;;;;;7.25;5.03;;;;;;;23.29;80.50;100236.09;1779867;78;26023;-67
2022/06/08 09:30:48;;;;;;;7.33;5.15;;;;;;;23.37;79.84;100222.14;1772705;78;25839;-67
2022/06/08 09:33:36;;;;;;;13.18;5.40;;;;;;;23.70;79.62;100246.50;1779382;78;98645;-66
2022/06/08 09:36:25;;;;;;;12.37;4.70;;;;;;;23.87;79.11;100237.37;1784515;78;26051;-67
2022/06/08 09:38:52;;;;;;;11.48;5.62;;;;;;;24.03;78.63;100236.61;1772038;78;98888;-69
2022/06/08 09:41:22;;;;;;;13.00;6.03;;;;;;;24.02;77.85;100237.12;1780009;78;25873;-69
2022/06/08 09:44:16;;;;;;;10.13;4.42;;;;;;;23.99;77.40;100228.38;1780895;78;99026;-68
2022/06/08 09:53:57;;;;;;;5.97;4.17;;;;;;;23.91;75.84;100231.41;1755397;78;27565;-66
2022/06/08 09:56:46;;;;;;;7.10;4.55;;;;;;;23.94;75.32;100228.86;1748031;80;98696;-67
2022/06/08 09:59:53;;;;;;;7.50;4.60;;;;;;;24.03;75.03;100221.55;1754474;79;25806;-68
2022/06/08 10:02:36;;;;;;;8.88;3.80;;;;;;;24.04;74.55;100221.39;1741893;80;98691;-69
2022/06/08 10:05:10;;;;;;;8.88;4.08;;;;;;;24.00;74.07;100221.36;1744951;80;25738;-67
2022/06/08 10:07:41;;;;;;;9.85;3.52;;;;;;;23.95;73.59;100222.36;1748232;80;99002;-67
2022/06/08 10:10:28;;;;;;;11.00;3.55;;;;;;;23.98;73.25;100225.28;1784340;79;27137;-68
2022/06/08 10:13:01;;;;;;;10.00;3.10;;;;;;;24.05;72.88;100217.63;1767308;79;25713;-68
2022/06/08 10:15:47;;;;;;;13.78;3.70;;;;;;;24.19;72.55;100209.30;1783998;78;98885;-68
2022/06/08 10:18:31;;;;;;;3.35;3.05;;;;;;;24.33;72.37;100210.08;1780124;79;25853;-67
2022/06/08 10:21:23;;;;;;;6.72;3.62;;;;;;;24.50;72.18;100208.26;1762411;79;98759;-67
2022/06/08 10:23:55;;;;;;;11.18;3.42;;;;;;;24.60;71.89;100204.86;1765431;79;25753;-67
2022/06/08 10:26:35;;;;;;;5.50;3.00;;;;;;;24.63;71.56;100205.03;1767069;79;99370;-66
2022/06/08 10:29:34;;;;;;;3.83;2.90;;;;;;;24.66;71.31;100208.30;1697229;82;25852;-67
2022/06/08 10:32:08;;;;;;;4.95;2.12;;;;;;;24.65;70.80;100201.62;1698515;82;99386;-67
2022/06/08 10:34:38;;;;;;;5.60;2.55;;;;;;;24.65;70.24;100207.09;1756569;80;27630;-66
2022/06/08 10:37:18;;;;;;;6.43;2.80;;;;;;;24.63;70.00;100203.67;1730811;81;25824;-66
2022/06/08 10:39:47;;;;;;;5.67;2.50;;;;;;;24.65;69.63;100205.73;1714263;80;98545;-67
2022/06/08 10:42:40;;;;;;;5.30;2.33;;;;;;;24.58;68.35;100211.02;1712491;82;25644;-67
2022/06/08 10:45:29;;;;;;;5.58;2.50;;;;;;;24.53;68.51;100210.16;1708974;82;98905;-67
2022/06/08 10:48:17;;;;;;;4.33;2.77;;;;;;;24.72;68.42;100208.14;1663525;84;25931;-67
2022/06/08 10:50:48;;;;;;;7.90;3.08;;;;;;;24.84;67.94;100210.39;1722675;81;98989;-66
2022/06/08 10:56:39;;;;;;;5.90;2.70;;;;;;;24.83;67.01;100199.09;1731487;81;98726;-66
2022/06/08 10:59:15;;;;;;;3.30;2.20;;;;;;;24.86;66.58;100208.86;1704928;82;25731;-66
2022/06/08 11:02:05;;;;;;;5.65;2.70;;;;;;;24.81;66.29;100207.99;1712419;82;99284;-67
2022/06/08 11:04:36;;;;;;;5.75;2.67;;;;;;;24.74;65.93;100210.20;1739564;80;26177;-67
2022/06/08 11:07:16;;;;;;;3.20;1.90;;;;;;;24.57;64.66;100207.94;1714225;81;26301;-66
2022/06/08 11:09:48;;;;;;;4.33;1.55;;;;;;;24.34;63.30;100202.72;1751778;80;98611;-66
2022/06/08 11:12:27;;;;;;;5.65;1.45;;;;;;;24.32;63.29;100202.03;1754399;80;26466;-66
2022/06/08 11:14:58;;;;;;;3.20;1.40;;;;;;;24.36;62.63;100202.91;1729860;80;98625;-66
2022/06/08 11:17:58;;;;;;;2.12;1.07;;;;;;;24.35;62.05;100200.33;1706203;81;25850;-66
2022/06/08 11:20:47;;;;;;;3.08;1.12;;;;;;;24.35;61.77;100192.97;1727042;81;98816;-67
2022/06/08 11:23:46;;;;;;;2.58;1.42;;;;;;;24.44;61.34;100188.38;1690933;83;26356;-67
2022/06/08 11:26:23;;;;;;;2.80;1.57;;;;;;;24.40;60.48;100184.25;1706633;81;99274;-67
2022/06/08 11:29:04;;;;;;;1.45;1.27;;;;;;;24.44;60.26;100185.64;1696919;82;27406;-67
2022/06/08 11:31:35;;;;;;;3.33;1.72;;;;;;;24.54;59.87;100187.72;1692245;81;98878;-67
2022/06/08 11:34:12;;;;;;;5.05;1.57;;;;;;;24.57;59.41;100181.91;1748914;80;25709;-67
2022/06/08 11:36:44;;;;;;;6.42;1.80;;;;;;;24.50;59.18;100172.13;1747584;80;26072;-67
2022/06/08 11:39:53;;;;;;;5.00;2.12;;;;;;;24.63;58.77;100183.11;1736611;80;98762;-67
2022/06/08 11:42:46;;;;;;;3.40;2.72;;;;;;;24.72;58.41;100173.88;1680035;83;29508;-67
2022/06/08 11:45:23;;;;;;;3.15;2.02;;;;;;;24.91;58.14;100177.16;1721338;81;98764;-67
2022/06/08 11:47:58;;;;;;;10.45;2.77;;;;;;;24.99;57.88;100183.20;1717159;81;26560;-67
2022/06/08 11:50:42;;;;;;;6.25;2.10;;;;;;;25.07;57.74;100172.23;1717394;81;99025;-66
2022/06/08 11:53:35;;;;;;;3.98;2.70;;;;;;;25.18;57.72;100169.66;1702634;83;26477;-67
2022/06/08 11:56:27;;;;;;;7.70;2.85;;;;;;;25.23;57.60;100175.48;1731604;81;98940;-67
2022/06/08 11:58:59;;;;;;;8.93;2.47;;;;;;;25.20;56.62;100170.34;1727551;81;27023;-66